Piper — WDE6779 — position and weather

sailwx.info

Track history (hours):
 
Tides and Currents Weather Stations Pressure Air Temp Water Temp Dewpoint Dewpoint Depression Visibility Wind Speed Wind Dir Waves Ship Positions

Piper

Owner: ADS MARINE, LLC, MORGAN CITY, LA. More information available from US FCC via Universal Licensing System and Coast Guard Vessel Documentation Center.

Last reported at 2017-Mar-28 04:33 UTC. Time now 2017-Mar-29 19:10 UTC.
Position N 29°33' W 092°18'.

Length 40 m; draft 3 m.

Type: Cargo ship. MMSI: 367384720.

Date/timePositionNaut miles runAvg speedWind from/ knotsBaromVisibWave heightAir tempDewpointWater temp
2017-Mar-28 04:33N 29°33' W 092°18'7 6.8
2017-Mar-28 03:33N 29°40' W 092°15'7 6.9
2017-Mar-28 02:33N 29°46' W 092°12'1 1.2
2017-Mar-28 01:33N 29°47' W 092°11'1 0.9
2017-Mar-28 00:33N 29°47' W 092°10'0 0.0
2017-Mar-27 23:33N 29°47' W 092°10'0 0.0
2017-Mar-27 22:33N 29°47' W 092°10'0 0.0
2017-Mar-27 21:33N 29°47' W 092°10'0 0.0
2017-Mar-27 20:33N 29°47' W 092°10'0 0.0
2017-Mar-27 19:33N 29°47' W 092°10'0 0.0
2017-Mar-27 18:33N 29°47' W 092°10'0 0.1
2017-Mar-27 17:33N 29°47' W 092°10'1 0.8
2017-Mar-27 16:33N 29°47' W 092°11'0 0.0
2017-Mar-27 15:33N 29°47' W 092°11'1 0.6
2017-Mar-27 14:33N 29°47' W 092°10'7 7.0
2017-Mar-27 13:33N 29°41' W 092°15'7 7.1
2017-Mar-27 12:30N 29°34' W 092°18'  
2017-Mar-24 02:18N 28°49' W 091°44'3 4.4
2017-Mar-24 01:33N 28°48' W 091°47'3 0.4
2017-Mar-23 17:30N 28°49' W 091°44'0 0.0
2017-Mar-23 16:33N 28°49' W 091°44'2 1.8
2017-Mar-23 15:33N 28°49' W 091°46'2 0.8
2017-Mar-23 13:09N 28°47' W 091°45'2 1.0
2017-Mar-23 11:33N 28°48' W 091°43'2 1.5
2017-Mar-23 10:33N 28°49' W 091°44'0 0.2
2017-Mar-23 09:17N 28°49' W 091°44'1 0.7
2017-Mar-23 08:33N 28°49' W 091°44'0 0.0
2017-Mar-23 07:33N 28°49' W 091°44'0 0.0
2017-Mar-23 06:33N 28°49' W 091°44'0 0.0
2017-Mar-23 05:30N 28°49' W 091°44'0 0.0
2017-Mar-23 04:31N 28°49' W 091°44'0 0.0
2017-Mar-23 03:05N 28°49' W 091°44'51 1.1
2017-Mar-21 06:11N 29°31' W 092°19'3 4.3
2017-Mar-21 05:33N 29°33' W 092°18'6 5.7
2017-Mar-21 04:33N 29°38' W 092°16'6 6.2
2017-Mar-21 03:33N 29°44' W 092°14'3 3.2
2017-Mar-21 02:33N 29°47' W 092°11'0 0.1
2017-Mar-21 01:33N 29°47' W 092°11'1 0.8
2017-Mar-21 00:33N 29°47' W 092°10'0 0.0
2017-Mar-20 23:33N 29°47' W 092°10'0 0.0
2017-Mar-20 22:33N 29°47' W 092°10'0 0.0
2017-Mar-20 21:33N 29°47' W 092°10'0 0.0
2017-Mar-20 20:33N 29°47' W 092°10'0 0.0
2017-Mar-20 19:33N 29°47' W 092°10'0 0.0
2017-Mar-20 18:33N 29°47' W 092°10'0 0.0
2017-Mar-20 17:33N 29°47' W 092°10'1 0.8
2017-Mar-20 16:33N 29°47' W 092°11'0 0.0
2017-Mar-20 15:33N 29°47' W 092°11'0 0.0
2017-Mar-20 14:33N 29°47' W 092°11'0 0.1
2017-Mar-20 13:33N 29°47' W 092°11'7 6.8
2017-Mar-20 12:33N 29°41' W 092°15'8 7.7
2017-Mar-20 11:30N 29°33' W 092°18'  
Track history (hours):
 
Tides and Currents Weather Stations Pressure Air Temp Water Temp Dewpoint Dewpoint Depression Visibility Wind Speed Wind Dir Waves Ship Positions

Piper

Owner: ADS MARINE, LLC, MORGAN CITY, LA. More information available from US FCC via Universal Licensing System and Coast Guard Vessel Documentation Center.

Last reported at 2017-Mar-28 04:33 UTC. Time now 2017-Mar-29 19:10 UTC.
Position N 29°33' W 092°18'.

Length 40 m; draft 3 m.

Type: Cargo ship. MMSI: 367384720.

Date/timePositionNaut miles runAvg speedWind from/ knotsBaromVisibWave heightAir tempDewpointWater temp
2017-Mar-28 04:33N 29°33' W 092°18'7 6.8
2017-Mar-28 03:33N 29°40' W 092°15'7 6.9
2017-Mar-28 02:33N 29°46' W 092°12'1 1.2
2017-Mar-28 01:33N 29°47' W 092°11'1 0.9
2017-Mar-28 00:33N 29°47' W 092°10'0 0.0
2017-Mar-27 23:33N 29°47' W 092°10'0 0.0
2017-Mar-27 22:33N 29°47' W 092°10'0 0.0
2017-Mar-27 21:33N 29°47' W 092°10'0 0.0
2017-Mar-27 20:33N 29°47' W 092°10'0 0.0
2017-Mar-27 19:33N 29°47' W 092°10'0 0.0
2017-Mar-27 18:33N 29°47' W 092°10'0 0.1
2017-Mar-27 17:33N 29°47' W 092°10'1 0.8
2017-Mar-27 16:33N 29°47' W 092°11'0 0.0
2017-Mar-27 15:33N 29°47' W 092°11'1 0.6
2017-Mar-27 14:33N 29°47' W 092°10'7 7.0
2017-Mar-27 13:33N 29°41' W 092°15'7 7.1
2017-Mar-27 12:30N 29°34' W 092°18'  
2017-Mar-24 02:18N 28°49' W 091°44'3 4.4
2017-Mar-24 01:33N 28°48' W 091°47'3 0.4
2017-Mar-23 17:30N 28°49' W 091°44'0 0.0
2017-Mar-23 16:33N 28°49' W 091°44'2 1.8
2017-Mar-23 15:33N 28°49' W 091°46'2 0.8
2017-Mar-23 13:09N 28°47' W 091°45'2 1.0
2017-Mar-23 11:33N 28°48' W 091°43'2 1.5
2017-Mar-23 10:33N 28°49' W 091°44'0 0.2
2017-Mar-23 09:17N 28°49' W 091°44'1 0.7
2017-Mar-23 08:33N 28°49' W 091°44'0 0.0
2017-Mar-23 07:33N 28°49' W 091°44'0 0.0
2017-Mar-23 06:33N 28°49' W 091°44'0 0.0
2017-Mar-23 05:30N 28°49' W 091°44'0 0.0
2017-Mar-23 04:31N 28°49' W 091°44'0 0.0
2017-Mar-23 03:05N 28°49' W 091°44'51 1.1
2017-Mar-21 06:11N 29°31' W 092°19'3 4.3
2017-Mar-21 05:33N 29°33' W 092°18'6 5.7
2017-Mar-21 04:33N 29°38' W 092°16'6 6.2
2017-Mar-21 03:33N 29°44' W 092°14'3 3.2
2017-Mar-21 02:33N 29°47' W 092°11'0 0.1
2017-Mar-21 01:33N 29°47' W 092°11'1 0.8
2017-Mar-21 00:33N 29°47' W 092°10'0 0.0
2017-Mar-20 23:33N 29°47' W 092°10'0 0.0
2017-Mar-20 22:33N 29°47' W 092°10'0 0.0
2017-Mar-20 21:33N 29°47' W 092°10'0 0.0
2017-Mar-20 20:33N 29°47' W 092°10'0 0.0
2017-Mar-20 19:33N 29°47' W 092°10'0 0.0
2017-Mar-20 18:33N 29°47' W 092°10'0 0.0
2017-Mar-20 17:33N 29°47' W 092°10'1 0.8
2017-Mar-20 16:33N 29°47' W 092°11'0 0.0
2017-Mar-20 15:33N 29°47' W 092°11'0 0.0
2017-Mar-20 14:33N 29°47' W 092°11'0 0.1
2017-Mar-20 13:33N 29°47' W 092°11'7 6.8
2017-Mar-20 12:33N 29°41' W 092°15'8 7.7
2017-Mar-20 11:30N 29°33' W 092°18'  

Dump ship's entire track history